sensor_id;sensor_type;location;lat;lon;timestamp;P1;durP1;ratioP1;P2;durP2;ratioP2
43771;SDS011;59066;54.782;32.024;2023-09-19T00:00:44;12.75;;;9.95;;
43771;SDS011;59066;54.782;32.024;2023-09-19T00:03:14;12.23;;;9.70;;
43771;SDS011;59066;54.782;32.024;2023-09-19T00:05:42;12.07;;;9.32;;
43771;SDS011;59066;54.782;32.024;2023-09-19T00:08:12;10.57;;;9.15;;
43771;SDS011;59066;54.782;32.024;2023-09-19T00:10:42;13.73;;;8.98;;
43771;SDS011;59066;54.782;32.024;2023-09-19T00:13:10;13.98;;;8.85;;
43771;SDS011;59066;54.782;32.024;2023-09-19T00:15:45;11.65;;;8.50;;
43771;SDS011;59066;54.782;32.024;2023-09-19T00:18:18;10.18;;;9.05;;
43771;SDS011;59066;54.782;32.024;2023-09-19T00:20:51;12.05;;;9.13;;
43771;SDS011;59066;54.782;32.024;2023-09-19T00:23:19;9.43;;;7.88;;
43771;SDS011;59066;54.782;32.024;2023-09-19T00:25:47;9.20;;;7.22;;
43771;SDS011;59066;54.782;32.024;2023-09-19T00:28:15;9.13;;;8.18;;
43771;SDS011;59066;54.782;32.024;2023-09-19T00:30:44;11.13;;;9.05;;
43771;SDS011;59066;54.782;32.024;2023-09-19T00:33:17;9.40;;;7.55;;
43771;SDS011;59066;54.782;32.024;2023-09-19T00:35:47;9.05;;;7.85;;
43771;SDS011;59066;54.782;32.024;2023-09-19T00:38:18;9.63;;;8.00;;
43771;SDS011;59066;54.782;32.024;2023-09-19T00:40:54;9.73;;;8.70;;
43771;SDS011;59066;54.782;32.024;2023-09-19T00:43:26;10.38;;;8.45;;
43771;SDS011;59066;54.782;32.024;2023-09-19T00:45:55;13.40;;;9.48;;
43771;SDS011;59066;54.782;32.024;2023-09-19T00:48:24;13.00;;;9.27;;
43771;SDS011;59066;54.782;32.024;2023-09-19T00:50:57;11.95;;;9.50;;
43771;SDS011;59066;54.782;32.024;2023-09-19T00:53:29;12.65;;;8.82;;
43771;SDS011;59066;54.782;32.024;2023-09-19T00:55:58;12.57;;;9.10;;
43771;SDS011;59066;54.782;32.024;2023-09-19T00:58:26;14.57;;;10.02;;
43771;SDS011;59066;54.782;32.024;2023-09-19T01:03:39;12.13;;;9.40;;
43771;SDS011;59066;54.782;32.024;2023-09-19T01:06:08;12.73;;;9.75;;
43771;SDS011;59066;54.782;32.024;2023-09-19T01:08:45;11.15;;;9.23;;
43771;SDS011;59066;54.782;32.024;2023-09-19T01:11:28;11.73;;;9.38;;
43771;SDS011;59066;54.782;32.024;2023-09-19T01:16:44;12.98;;;10.32;;
43771;SDS011;59066;54.782;32.024;2023-09-19T01:25:24;16.75;;;12.65;;
43771;SDS011;59066;54.782;32.024;2023-09-19T01:30:35;15.05;;;11.48;;
43771;SDS011;59066;54.782;32.024;2023-09-19T01:33:06;13.55;;;9.35;;
43771;SDS011;59066;54.782;32.024;2023-09-19T01:35:35;13.88;;;10.88;;
43771;SDS011;59066;54.782;32.024;2023-09-19T01:38:06;16.25;;;12.48;;
43771;SDS011;59066;54.782;32.024;2023-09-19T01:40:43;15.23;;;13.15;;
43771;SDS011;59066;54.782;32.024;2023-09-19T01:48:35;14.35;;;11.70;;
43771;SDS011;59066;54.782;32.024;2023-09-19T01:51:05;16.48;;;12.27;;
43771;SDS011;59066;54.782;32.024;2023-09-19T01:59:24;12.35;;;10.57;;
43771;SDS011;59066;54.782;32.024;2023-09-19T02:01:55;15.32;;;11.68;;
43771;SDS011;59066;54.782;32.024;2023-09-19T02:04:23;13.82;;;11.55;;
43771;SDS011;59066;54.782;32.024;2023-09-19T02:06:51;13.25;;;11.35;;
43771;SDS011;59066;54.782;32.024;2023-09-19T02:09:18;14.57;;;11.50;;
43771;SDS011;59066;54.782;32.024;2023-09-19T02:11:46;15.40;;;12.25;;
43771;SDS011;59066;54.782;32.024;2023-09-19T02:14:14;13.35;;;11.93;;
43771;SDS011;59066;54.782;32.024;2023-09-19T02:16:42;15.32;;;12.15;;
43771;SDS011;59066;54.782;32.024;2023-09-19T02:19:10;15.88;;;12.07;;
43771;SDS011;59066;54.782;32.024;2023-09-19T02:21:37;15.05;;;11.90;;
43771;SDS011;59066;54.782;32.024;2023-09-19T02:24:07;15.77;;;12.00;;
43771;SDS011;59066;54.782;32.024;2023-09-19T02:26:35;14.65;;;12.18;;
43771;SDS011;59066;54.782;32.024;2023-09-19T02:29:05;13.82;;;11.65;;
43771;SDS011;59066;54.782;32.024;2023-09-19T02:31:34;14.18;;;12.27;;
43771;SDS011;59066;54.782;32.024;2023-09-19T02:34:01;14.05;;;11.95;;
43771;SDS011;59066;54.782;32.024;2023-09-19T02:36:29;15.30;;;12.50;;
43771;SDS011;59066;54.782;32.024;2023-09-19T02:38:57;16.08;;;12.35;;
43771;SDS011;59066;54.782;32.024;2023-09-19T02:41:25;16.50;;;12.75;;
43771;SDS011;59066;54.782;32.024;2023-09-19T02:43:52;19.95;;;13.15;;
43771;SDS011;59066;54.782;32.024;2023-09-19T02:46:21;14.32;;;12.50;;
43771;SDS011;59066;54.782;32.024;2023-09-19T02:48:50;15.32;;;12.05;;
43771;SDS011;59066;54.782;32.024;2023-09-19T02:51:17;16.58;;;13.32;;
43771;SDS011;59066;54.782;32.024;2023-09-19T02:53:44;15.75;;;12.43;;
43771;SDS011;59066;54.782;32.024;2023-09-19T02:56:14;15.95;;;13.30;;
43771;SDS011;59066;54.782;32.024;2023-09-19T02:58:42;14.20;;;12.63;;
43771;SDS011;59066;54.782;32.024;2023-09-19T03:01:11;19.50;;;13.65;;
43771;SDS011;59066;54.782;32.024;2023-09-19T03:03:39;16.38;;;13.77;;
43771;SDS011;59066;54.782;32.024;2023-09-19T03:06:08;16.90;;;13.18;;
43771;SDS011;59066;54.782;32.024;2023-09-19T03:08:39;13.57;;;11.32;;
43771;SDS011;59066;54.782;32.024;2023-09-19T03:11:09;15.30;;;12.07;;
43771;SDS011;59066;54.782;32.024;2023-09-19T03:13:40;15.88;;;11.82;;
43771;SDS011;59066;54.782;32.024;2023-09-19T03:16:10;14.27;;;12.15;;
43771;SDS011;59066;54.782;32.024;2023-09-19T03:18:39;15.32;;;11.95;;
43771;SDS011;59066;54.782;32.024;2023-09-19T03:21:06;17.08;;;13.07;;
43771;SDS011;59066;54.782;32.024;2023-09-19T03:23:34;18.83;;;12.93;;
43771;SDS011;59066;54.782;32.024;2023-09-19T03:26:01;16.45;;;13.02;;
43771;SDS011;59066;54.782;32.024;2023-09-19T03:28:29;15.75;;;13.27;;
43771;SDS011;59066;54.782;32.024;2023-09-19T03:31:01;14.60;;;11.77;;
43771;SDS011;59066;54.782;32.024;2023-09-19T03:33:32;19.33;;;13.75;;
43771;SDS011;59066;54.782;32.024;2023-09-19T03:36:01;14.70;;;12.68;;
43771;SDS011;59066;54.782;32.024;2023-09-19T03:38:32;18.00;;;13.10;;
43771;SDS011;59066;54.782;32.024;2023-09-19T03:41:01;15.32;;;12.30;;
43771;SDS011;59066;54.782;32.024;2023-09-19T03:43:32;15.52;;;10.77;;
43771;SDS011;59066;54.782;32.024;2023-09-19T03:46:03;13.95;;;10.63;;
43771;SDS011;59066;54.782;32.024;2023-09-19T03:48:36;15.07;;;12.07;;
43771;SDS011;59066;54.782;32.024;2023-09-19T03:51:06;19.05;;;13.65;;
43771;SDS011;59066;54.782;32.024;2023-09-19T03:53:34;16.08;;;12.13;;
43771;SDS011;59066;54.782;32.024;2023-09-19T03:56:02;17.33;;;12.48;;
43771;SDS011;59066;54.782;32.024;2023-09-19T03:58:32;15.05;;;11.88;;
43771;SDS011;59066;54.782;32.024;2023-09-19T04:01:01;17.40;;;13.00;;
43771;SDS011;59066;54.782;32.024;2023-09-19T04:03:29;13.27;;;10.77;;
43771;SDS011;59066;54.782;32.024;2023-09-19T04:06:02;16.23;;;12.10;;
43771;SDS011;59066;54.782;32.024;2023-09-19T04:08:30;16.08;;;13.75;;
43771;SDS011;59066;54.782;32.024;2023-09-19T04:10:57;17.05;;;12.30;;
43771;SDS011;59066;54.782;32.024;2023-09-19T04:13:25;14.93;;;11.90;;
43771;SDS011;59066;54.782;32.024;2023-09-19T04:15:53;14.68;;;11.77;;
43771;SDS011;59066;54.782;32.024;2023-09-19T04:18:21;15.32;;;11.57;;
43771;SDS011;59066;54.782;32.024;2023-09-19T04:20:51;16.88;;;11.80;;
43771;SDS011;59066;54.782;32.024;2023-09-19T04:23:19;13.88;;;11.73;;
43771;SDS011;59066;54.782;32.024;2023-09-19T04:25:49;15.30;;;13.30;;
43771;SDS011;59066;54.782;32.024;2023-09-19T04:28:17;16.08;;;13.20;;
43771;SDS011;59066;54.782;32.024;2023-09-19T04:30:44;16.58;;;11.90;;
43771;SDS011;59066;54.782;32.024;2023-09-19T04:33:12;18.00;;;12.65;;
43771;SDS011;59066;54.782;32.024;2023-09-19T04:35:42;13.38;;;11.40;;
43771;SDS011;59066;54.782;32.024;2023-09-19T04:38:09;14.35;;;11.70;;
43771;SDS011;59066;54.782;32.024;2023-09-19T04:40:37;18.88;;;12.75;;
43771;SDS011;59066;54.782;32.024;2023-09-19T04:43:07;15.88;;;11.38;;
43771;SDS011;59066;54.782;32.024;2023-09-19T04:45:34;16.33;;;11.98;;
43771;SDS011;59066;54.782;32.024;2023-09-19T04:48:02;14.40;;;11.30;;
43771;SDS011;59066;54.782;32.024;2023-09-19T04:50:30;14.85;;;12.38;;
43771;SDS011;59066;54.782;32.024;2023-09-19T04:52:58;18.13;;;11.63;;
43771;SDS011;59066;54.782;32.024;2023-09-19T04:55:26;13.63;;;11.48;;
43771;SDS011;59066;54.782;32.024;2023-09-19T04:57:55;13.18;;;9.95;;
43771;SDS011;59066;54.782;32.024;2023-09-19T05:00:23;13.25;;;10.80;;
43771;SDS011;59066;54.782;32.024;2023-09-19T05:02:56;16.25;;;11.70;;
43771;SDS011;59066;54.782;32.024;2023-09-19T05:05:24;17.65;;;12.73;;
43771;SDS011;59066;54.782;32.024;2023-09-19T05:07:53;19.85;;;16.95;;
43771;SDS011;59066;54.782;32.024;2023-09-19T05:10:21;14.95;;;10.48;;
43771;SDS011;59066;54.782;32.024;2023-09-19T05:12:49;13.32;;;11.35;;
43771;SDS011;59066;54.782;32.024;2023-09-19T05:15:20;16.90;;;12.07;;
43771;SDS011;59066;54.782;32.024;2023-09-19T05:17:48;14.32;;;11.00;;
43771;SDS011;59066;54.782;32.024;2023-09-19T05:20:25;13.00;;;11.07;;
43771;SDS011;59066;54.782;32.024;2023-09-19T05:23:00;16.37;;;9.50;;
43771;SDS011;59066;54.782;32.024;2023-09-19T05:25:35;14.20;;;11.88;;
43771;SDS011;59066;54.782;32.024;2023-09-19T05:28:06;12.98;;;10.75;;
43771;SDS011;59066;54.782;32.024;2023-09-19T05:30:39;13.93;;;10.65;;
43771;SDS011;59066;54.782;32.024;2023-09-19T05:33:08;11.15;;;9.82;;
43771;SDS011;59066;54.782;32.024;2023-09-19T05:35:36;17.50;;;13.95;;
43771;SDS011;59066;54.782;32.024;2023-09-19T05:38:09;15.68;;;11.88;;
43771;SDS011;59066;54.782;32.024;2023-09-19T05:40:40;14.68;;;11.52;;
43771;SDS011;59066;54.782;32.024;2023-09-19T05:43:15;16.40;;;12.85;;
43771;SDS011;59066;54.782;32.024;2023-09-19T05:45:43;14.38;;;10.73;;
43771;SDS011;59066;54.782;32.024;2023-09-19T05:48:13;18.60;;;11.73;;
43771;SDS011;59066;54.782;32.024;2023-09-19T05:50:43;15.13;;;10.60;;
43771;SDS011;59066;54.782;32.024;2023-09-19T05:53:11;17.90;;;12.13;;
43771;SDS011;59066;54.782;32.024;2023-09-19T05:55:42;14.13;;;9.65;;
43771;SDS011;59066;54.782;32.024;2023-09-19T05:58:09;15.15;;;10.02;;
43771;SDS011;59066;54.782;32.024;2023-09-19T06:00:37;13.00;;;10.05;;
43771;SDS011;59066;54.782;32.024;2023-09-19T06:03:08;12.27;;;10.30;;
43771;SDS011;59066;54.782;32.024;2023-09-19T06:05:37;17.17;;;11.52;;
43771;SDS011;59066;54.782;32.024;2023-09-19T06:08:09;16.23;;;9.77;;
43771;SDS011;59066;54.782;32.024;2023-09-19T06:10:36;14.68;;;11.02;;
43771;SDS011;59066;54.782;32.024;2023-09-19T06:13:05;14.73;;;11.43;;
43771;SDS011;59066;54.782;32.024;2023-09-19T06:15:33;13.75;;;10.50;;
43771;SDS011;59066;54.782;32.024;2023-09-19T06:18:04;18.58;;;11.20;;
43771;SDS011;59066;54.782;32.024;2023-09-19T06:20:32;23.48;;;11.15;;
43771;SDS011;59066;54.782;32.024;2023-09-19T06:23:00;15.25;;;10.80;;
43771;SDS011;59066;54.782;32.024;2023-09-19T06:25:29;10.60;;;8.95;;
43771;SDS011;59066;54.782;32.024;2023-09-19T06:27:57;17.83;;;10.23;;
43771;SDS011;59066;54.782;32.024;2023-09-19T06:30:24;16.33;;;10.00;;
43771;SDS011;59066;54.782;32.024;2023-09-19T06:32:58;21.33;;;11.10;;
43771;SDS011;59066;54.782;32.024;2023-09-19T06:35:27;11.80;;;9.32;;
43771;SDS011;59066;54.782;32.024;2023-09-19T06:37:56;21.55;;;11.50;;
43771;SDS011;59066;54.782;32.024;2023-09-19T06:40:27;26.00;;;15.88;;
43771;SDS011;59066;54.782;32.024;2023-09-19T06:42:55;15.48;;;10.30;;
43771;SDS011;59066;54.782;32.024;2023-09-19T06:45:23;16.40;;;10.80;;
43771;SDS011;59066;54.782;32.024;2023-09-19T06:47:54;21.85;;;10.68;;
43771;SDS011;59066;54.782;32.024;2023-09-19T06:50:26;13.77;;;10.32;;
43771;SDS011;59066;54.782;32.024;2023-09-19T06:52:54;9.45;;;8.45;;
43771;SDS011;59066;54.782;32.024;2023-09-19T06:55:25;20.02;;;11.15;;
43771;SDS011;59066;54.782;32.024;2023-09-19T06:57:56;15.93;;;10.00;;
43771;SDS011;59066;54.782;32.024;2023-09-19T07:00:24;13.80;;;10.25;;
43771;SDS011;59066;54.782;32.024;2023-09-19T07:05:28;18.25;;;12.38;;
43771;SDS011;59066;54.782;32.024;2023-09-19T07:07:55;12.05;;;9.77;;
43771;SDS011;59066;54.782;32.024;2023-09-19T07:10:23;13.35;;;9.02;;
43771;SDS011;59066;54.782;32.024;2023-09-19T07:12:55;12.50;;;9.77;;
43771;SDS011;59066;54.782;32.024;2023-09-19T07:15:27;14.57;;;9.38;;
43771;SDS011;59066;54.782;32.024;2023-09-19T07:17:55;15.15;;;8.70;;
43771;SDS011;59066;54.782;32.024;2023-09-19T07:20:24;14.93;;;8.98;;
43771;SDS011;59066;54.782;32.024;2023-09-19T07:22:59;14.68;;;8.20;;
43771;SDS011;59066;54.782;32.024;2023-09-19T07:25:28;9.63;;;7.95;;
43771;SDS011;59066;54.782;32.024;2023-09-19T07:27:58;12.77;;;9.13;;
43771;SDS011;59066;54.782;32.024;2023-09-19T07:30:31;12.27;;;8.27;;
43771;SDS011;59066;54.782;32.024;2023-09-19T07:32:59;10.93;;;7.80;;
43771;SDS011;59066;54.782;32.024;2023-09-19T07:35:26;9.82;;;7.40;;
43771;SDS011;59066;54.782;32.024;2023-09-19T07:37:54;14.60;;;8.85;;
43771;SDS011;59066;54.782;32.024;2023-09-19T07:40:23;16.33;;;10.02;;
43771;SDS011;59066;54.782;32.024;2023-09-19T07:42:57;18.80;;;12.48;;
43771;SDS011;59066;54.782;32.024;2023-09-19T07:45:28;11.57;;;8.07;;
43771;SDS011;59066;54.782;32.024;2023-09-19T07:47:57;18.75;;;10.98;;
43771;SDS011;59066;54.782;32.024;2023-09-19T07:50:24;24.17;;;20.50;;
43771;SDS011;59066;54.782;32.024;2023-09-19T07:52:53;26.60;;;19.83;;
43771;SDS011;59066;54.782;32.024;2023-09-19T07:55:21;25.35;;;15.98;;
43771;SDS011;59066;54.782;32.024;2023-09-19T07:57:53;13.35;;;8.75;;
43771;SDS011;59066;54.782;32.024;2023-09-19T08:00:20;13.52;;;7.20;;
43771;SDS011;59066;54.782;32.024;2023-09-19T08:02:48;8.68;;;7.60;;
43771;SDS011;59066;54.782;32.024;2023-09-19T08:05:17;11.82;;;7.40;;
43771;SDS011;59066;54.782;32.024;2023-09-19T08:07:45;21.08;;;17.73;;
43771;SDS011;59066;54.782;32.024;2023-09-19T08:10:16;10.65;;;7.63;;
43771;SDS011;59066;54.782;32.024;2023-09-19T08:12:48;11.40;;;9.27;;
43771;SDS011;59066;54.782;32.024;2023-09-19T08:15:16;16.05;;;8.65;;
43771;SDS011;59066;54.782;32.024;2023-09-19T08:17:48;12.60;;;8.25;;
43771;SDS011;59066;54.782;32.024;2023-09-19T08:20:16;14.32;;;8.20;;
43771;SDS011;59066;54.782;32.024;2023-09-19T08:22:46;8.50;;;7.60;;
43771;SDS011;59066;54.782;32.024;2023-09-19T08:25:15;17.08;;;9.75;;
43771;SDS011;59066;54.782;32.024;2023-09-19T08:27:46;14.18;;;9.70;;
43771;SDS011;59066;54.782;32.024;2023-09-19T08:30:16;10.65;;;7.18;;
43771;SDS011;59066;54.782;32.024;2023-09-19T08:32:51;10.32;;;7.53;;
43771;SDS011;59066;54.782;32.024;2023-09-19T08:35:26;11.75;;;8.80;;
43771;SDS011;59066;54.782;32.024;2023-09-19T08:37:54;9.52;;;7.25;;
43771;SDS011;59066;54.782;32.024;2023-09-19T08:40:22;15.90;;;10.20;;
43771;SDS011;59066;54.782;32.024;2023-09-19T08:42:57;8.98;;;7.40;;
43771;SDS011;59066;54.782;32.024;2023-09-19T08:45:24;11.98;;;8.10;;
43771;SDS011;59066;54.782;32.024;2023-09-19T08:48:13;10.35;;;6.63;;
43771;SDS011;59066;54.782;32.024;2023-09-19T08:53:34;9.70;;;5.80;;
43771;SDS011;59066;54.782;32.024;2023-09-19T08:56:20;14.07;;;11.38;;
43771;SDS011;59066;54.782;32.024;2023-09-19T08:58:51;12.27;;;8.57;;
43771;SDS011;59066;54.782;32.024;2023-09-19T09:01:27;12.15;;;8.40;;
43771;SDS011;59066;54.782;32.024;2023-09-19T09:04:01;12.73;;;7.88;;
43771;SDS011;59066;54.782;32.024;2023-09-19T09:06:32;12.13;;;7.50;;
43771;SDS011;59066;54.782;32.024;2023-09-19T09:09:02;16.63;;;7.80;;
43771;SDS011;59066;54.782;32.024;2023-09-19T09:11:30;12.18;;;7.25;;
43771;SDS011;59066;54.782;32.024;2023-09-19T09:14:01;8.88;;;6.55;;
43771;SDS011;59066;54.782;32.024;2023-09-19T09:16:29;12.52;;;7.43;;
43771;SDS011;59066;54.782;32.024;2023-09-19T09:18:58;16.20;;;10.07;;
43771;SDS011;59066;54.782;32.024;2023-09-19T09:21:26;13.77;;;7.90;;
43771;SDS011;59066;54.782;32.024;2023-09-19T09:23:54;12.02;;;7.75;;
43771;SDS011;59066;54.782;32.024;2023-09-19T09:29:06;11.48;;;8.00;;
43771;SDS011;59066;54.782;32.024;2023-09-19T09:31:34;11.82;;;7.28;;
43771;SDS011;59066;54.782;32.024;2023-09-19T09:34:01;10.65;;;6.80;;
43771;SDS011;59066;54.782;32.024;2023-09-19T09:36:37;17.70;;;8.00;;
43771;SDS011;59066;54.782;32.024;2023-09-19T09:39:06;19.00;;;10.13;;
43771;SDS011;59066;54.782;32.024;2023-09-19T09:41:52;10.30;;;7.85;;
43771;SDS011;59066;54.782;32.024;2023-09-19T09:44:22;9.93;;;8.10;;
43771;SDS011;59066;54.782;32.024;2023-09-19T09:46:55;10.18;;;6.47;;
43771;SDS011;59066;54.782;32.024;2023-09-19T09:49:43;11.57;;;7.35;;
43771;SDS011;59066;54.782;32.024;2023-09-19T09:52:21;7.65;;;6.28;;
43771;SDS011;59066;54.782;32.024;2023-09-19T09:55:02;9.73;;;7.00;;
43771;SDS011;59066;54.782;32.024;2023-09-19T09:57:34;12.20;;;7.25;;
43771;SDS011;59066;54.782;32.024;2023-09-19T10:00:03;12.82;;;7.28;;
43771;SDS011;59066;54.782;32.024;2023-09-19T10:02:41;9.20;;;6.68;;
43771;SDS011;59066;54.782;32.024;2023-09-19T10:05:13;7.72;;;6.38;;
43771;SDS011;59066;54.782;32.024;2023-09-19T10:07:50;15.10;;;7.25;;
43771;SDS011;59066;54.782;32.024;2023-09-19T10:10:33;11.40;;;7.00;;
43771;SDS011;59066;54.782;32.024;2023-09-19T10:13:11;13.18;;;8.25;;
43771;SDS011;59066;54.782;32.024;2023-09-19T10:15:43;8.85;;;6.47;;
43771;SDS011;59066;54.782;32.024;2023-09-19T10:18:19;8.15;;;6.63;;
43771;SDS011;59066;54.782;32.024;2023-09-19T10:20:49;10.05;;;5.35;;
43771;SDS011;59066;54.782;32.024;2023-09-19T10:23:18;10.52;;;7.03;;
43771;SDS011;59066;54.782;32.024;2023-09-19T10:25:51;10.15;;;7.10;;
43771;SDS011;59066;54.782;32.024;2023-09-19T10:28:21;8.95;;;6.90;;
43771;SDS011;59066;54.782;32.024;2023-09-19T10:30:52;7.95;;;6.47;;
43771;SDS011;59066;54.782;32.024;2023-09-19T10:33:21;9.73;;;7.82;;
43771;SDS011;59066;54.782;32.024;2023-09-19T10:35:58;8.00;;;6.97;;
43771;SDS011;59066;54.782;32.024;2023-09-19T10:38:27;10.45;;;7.18;;
43771;SDS011;59066;54.782;32.024;2023-09-19T10:40:56;11.32;;;8.82;;
43771;SDS011;59066;54.782;32.024;2023-09-19T10:43:31;16.48;;;7.93;;
43771;SDS011;59066;54.782;32.024;2023-09-19T10:46:02;15.50;;;7.13;;
43771;SDS011;59066;54.782;32.024;2023-09-19T10:48:35;8.68;;;7.47;;
43771;SDS011;59066;54.782;32.024;2023-09-19T10:51:14;11.88;;;6.70;;
43771;SDS011;59066;54.782;32.024;2023-09-19T10:53:48;11.93;;;7.07;;
43771;SDS011;59066;54.782;32.024;2023-09-19T10:56:23;8.77;;;5.70;;
43771;SDS011;59066;54.782;32.024;2023-09-19T10:59:09;8.50;;;6.88;;
43771;SDS011;59066;54.782;32.024;2023-09-19T11:01:45;13.82;;;7.45;;
43771;SDS011;59066;54.782;32.024;2023-09-19T11:04:24;12.77;;;7.05;;
43771;SDS011;59066;54.782;32.024;2023-09-19T11:07:05;11.20;;;6.88;;
43771;SDS011;59066;54.782;32.024;2023-09-19T11:09:42;8.32;;;6.55;;
43771;SDS011;59066;54.782;32.024;2023-09-19T11:26:41;8.80;;;6.80;;
43771;SDS011;59066;54.782;32.024;2023-09-19T11:29:26;9.27;;;6.95;;
43771;SDS011;59066;54.782;32.024;2023-09-19T11:31:59;8.13;;;6.32;;
43771;SDS011;59066;54.782;32.024;2023-09-19T11:37:03;9.73;;;6.27;;
43771;SDS011;59066;54.782;32.024;2023-09-19T11:40:05;9.30;;;6.57;;
43771;SDS011;59066;54.782;32.024;2023-09-19T11:48:18;8.25;;;6.45;;
43771;SDS011;59066;54.782;32.024;2023-09-19T11:50:45;9.70;;;6.63;;
43771;SDS011;59066;54.782;32.024;2023-09-19T11:53:14;15.57;;;8.90;;
43771;SDS011;59066;54.782;32.024;2023-09-19T11:55:43;10.98;;;5.65;;
43771;SDS011;59066;54.782;32.024;2023-09-19T11:58:12;12.82;;;6.68;;
43771;SDS011;59066;54.782;32.024;2023-09-19T12:00:46;9.68;;;7.88;;
43771;SDS011;59066;54.782;32.024;2023-09-19T12:03:21;12.02;;;9.30;;
43771;SDS011;59066;54.782;32.024;2023-09-19T12:05:51;15.77;;;11.65;;
43771;SDS011;59066;54.782;32.024;2023-09-19T12:08:19;20.85;;;12.63;;
43771;SDS011;59066;54.782;32.024;2023-09-19T12:10:48;16.35;;;10.65;;
43771;SDS011;59066;54.782;32.024;2023-09-19T12:13:18;9.55;;;7.70;;
43771;SDS011;59066;54.782;32.024;2023-09-19T12:15:46;9.02;;;6.15;;
43771;SDS011;59066;54.782;32.024;2023-09-19T12:18:29;9.63;;;7.35;;
43771;SDS011;59066;54.782;32.024;2023-09-19T12:20:59;9.52;;;6.53;;
43771;SDS011;59066;54.782;32.024;2023-09-19T12:26:04;10.32;;;6.95;;
43771;SDS011;59066;54.782;32.024;2023-09-19T12:28:41;9.10;;;6.20;;
43771;SDS011;59066;54.782;32.024;2023-09-19T12:31:12;9.15;;;6.18;;
43771;SDS011;59066;54.782;32.024;2023-09-19T12:33:39;10.48;;;6.72;;
43771;SDS011;59066;54.782;32.024;2023-09-19T12:36:21;10.10;;;6.85;;
43771;SDS011;59066;54.782;32.024;2023-09-19T12:38:56;10.07;;;8.68;;
43771;SDS011;59066;54.782;32.024;2023-09-19T12:41:25;9.90;;;7.32;;
43771;SDS011;59066;54.782;32.024;2023-09-19T12:43:54;7.65;;;6.85;;
43771;SDS011;59066;54.782;32.024;2023-09-19T12:46:22;10.27;;;7.45;;
43771;SDS011;59066;54.782;32.024;2023-09-19T12:49:15;10.63;;;6.88;;
43771;SDS011;59066;54.782;32.024;2023-09-19T12:51:47;12.02;;;10.68;;
43771;SDS011;59066;54.782;32.024;2023-09-19T12:54:14;9.52;;;5.53;;
43771;SDS011;59066;54.782;32.024;2023-09-19T12:56:46;10.80;;;7.60;;
43771;SDS011;59066;54.782;32.024;2023-09-19T12:59:15;8.73;;;6.97;;
43771;SDS011;59066;54.782;32.024;2023-09-19T13:01:43;11.35;;;7.65;;
43771;SDS011;59066;54.782;32.024;2023-09-19T13:04:17;11.13;;;7.50;;
43771;SDS011;59066;54.782;32.024;2023-09-19T13:06:47;12.65;;;8.55;;
43771;SDS011;59066;54.782;32.024;2023-09-19T13:09:19;11.90;;;7.57;;
43771;SDS011;59066;54.782;32.024;2023-09-19T13:11:48;11.52;;;7.35;;
43771;SDS011;59066;54.782;32.024;2023-09-19T13:14:21;11.55;;;8.15;;
43771;SDS011;59066;54.782;32.024;2023-09-19T13:16:55;13.75;;;9.48;;
43771;SDS011;59066;54.782;32.024;2023-09-19T13:25:08;18.88;;;11.05;;
43771;SDS011;59066;54.782;32.024;2023-09-19T13:27:44;13.70;;;9.73;;
43771;SDS011;59066;54.782;32.024;2023-09-19T13:30:19;13.82;;;8.85;;
43771;SDS011;59066;54.782;32.024;2023-09-19T13:32:48;8.65;;;7.50;;
43771;SDS011;59066;54.782;32.024;2023-09-19T13:35:15;13.60;;;9.35;;
43771;SDS011;59066;54.782;32.024;2023-09-19T13:37:43;13.88;;;8.23;;
43771;SDS011;59066;54.782;32.024;2023-09-19T13:40:12;10.38;;;7.15;;
43771;SDS011;59066;54.782;32.024;2023-09-19T13:42:41;12.52;;;9.55;;
43771;SDS011;59066;54.782;32.024;2023-09-19T13:45:10;13.32;;;9.32;;
43771;SDS011;59066;54.782;32.024;2023-09-19T13:47:40;10.65;;;7.30;;
43771;SDS011;59066;54.782;32.024;2023-09-19T13:50:07;11.82;;;7.72;;
43771;SDS011;59066;54.782;32.024;2023-09-19T13:52:36;11.02;;;8.45;;
43771;SDS011;59066;54.782;32.024;2023-09-19T13:55:03;8.15;;;6.60;;
43771;SDS011;59066;54.782;32.024;2023-09-19T13:57:33;14.52;;;9.88;;
43771;SDS011;59066;54.782;32.024;2023-09-19T14:00:01;12.68;;;7.57;;
43771;SDS011;59066;54.782;32.024;2023-09-19T14:02:37;13.85;;;9.23;;
43771;SDS011;59066;54.782;32.024;2023-09-19T14:05:06;19.33;;;8.07;;
43771;SDS011;59066;54.782;32.024;2023-09-19T14:07:34;8.65;;;7.15;;
43771;SDS011;59066;54.782;32.024;2023-09-19T14:10:03;9.98;;;6.72;;
43771;SDS011;59066;54.782;32.024;2023-09-19T14:12:38;8.63;;;7.70;;
43771;SDS011;59066;54.782;32.024;2023-09-19T14:15:09;13.15;;;9.27;;
43771;SDS011;59066;54.782;32.024;2023-09-19T14:17:40;9.13;;;7.38;;
43771;SDS011;59066;54.782;32.024;2023-09-19T14:20:14;8.45;;;6.90;;
43771;SDS011;59066;54.782;32.024;2023-09-19T14:22:42;10.15;;;6.75;;
43771;SDS011;59066;54.782;32.024;2023-09-19T14:25:10;16.67;;;8.57;;
43771;SDS011;59066;54.782;32.024;2023-09-19T14:27:37;8.13;;;6.50;;
43771;SDS011;59066;54.782;32.024;2023-09-19T14:30:06;10.95;;;7.00;;
43771;SDS011;59066;54.782;32.024;2023-09-19T14:32:33;9.98;;;6.82;;
43771;SDS011;59066;54.782;32.024;2023-09-19T14:35:02;9.82;;;8.40;;
43771;SDS011;59066;54.782;32.024;2023-09-19T14:37:32;12.38;;;8.88;;
43771;SDS011;59066;54.782;32.024;2023-09-19T14:40:00;18.35;;;12.98;;
43771;SDS011;59066;54.782;32.024;2023-09-19T14:42:30;13.82;;;11.40;;
43771;SDS011;59066;54.782;32.024;2023-09-19T14:44:58;14.02;;;10.13;;
43771;SDS011;59066;54.782;32.024;2023-09-19T14:47:26;19.70;;;14.07;;
43771;SDS011;59066;54.782;32.024;2023-09-19T14:49:55;15.98;;;9.13;;
43771;SDS011;59066;54.782;32.024;2023-09-19T14:52:25;9.13;;;8.23;;
43771;SDS011;59066;54.782;32.024;2023-09-19T14:54:55;14.30;;;11.40;;
43771;SDS011;59066;54.782;32.024;2023-09-19T14:57:23;10.90;;;7.93;;
43771;SDS011;59066;54.782;32.024;2023-09-19T14:59:52;22.20;;;10.40;;
43771;SDS011;59066;54.782;32.024;2023-09-19T15:02:23;11.15;;;8.32;;
43771;SDS011;59066;54.782;32.024;2023-09-19T15:04:51;16.20;;;8.60;;
43771;SDS011;59066;54.782;32.024;2023-09-19T15:07:20;14.65;;;7.97;;
43771;SDS011;59066;54.782;32.024;2023-09-19T15:09:48;15.30;;;9.63;;
43771;SDS011;59066;54.782;32.024;2023-09-19T15:12:16;13.05;;;9.18;;
43771;SDS011;59066;54.782;32.024;2023-09-19T15:14:46;13.85;;;9.00;;
43771;SDS011;59066;54.782;32.024;2023-09-19T15:17:15;14.38;;;10.40;;
43771;SDS011;59066;54.782;32.024;2023-09-19T15:19:44;16.23;;;9.82;;
43771;SDS011;59066;54.782;32.024;2023-09-19T15:22:12;9.85;;;7.93;;
43771;SDS011;59066;54.782;32.024;2023-09-19T15:24:39;17.63;;;10.18;;
43771;SDS011;59066;54.782;32.024;2023-09-19T15:27:07;14.93;;;9.05;;
43771;SDS011;59066;54.782;32.024;2023-09-19T15:29:34;15.98;;;10.30;;
43771;SDS011;59066;54.782;32.024;2023-09-19T15:32:02;13.85;;;9.07;;
43771;SDS011;59066;54.782;32.024;2023-09-19T15:34:31;16.40;;;10.85;;
43771;SDS011;59066;54.782;32.024;2023-09-19T15:36:59;15.15;;;8.57;;
43771;SDS011;59066;54.782;32.024;2023-09-19T15:39:29;13.45;;;8.90;;
43771;SDS011;59066;54.782;32.024;2023-09-19T15:42:01;14.88;;;10.07;;